sensor_id;sensor_type;location;lat;lon;timestamp;P1;durP1;ratioP1;P2;durP2;ratioP2
69047;SDS011;56119;50.118;8.642;2023-03-14T00:01:32;17.73;;;9.77;;
69047;SDS011;56119;50.118;8.642;2023-03-14T00:03:58;17.08;;;9.48;;
69047;SDS011;56119;50.118;8.642;2023-03-14T00:06:24;21.70;;;9.82;;
69047;SDS011;56119;50.118;8.642;2023-03-14T00:08:51;17.67;;;9.02;;
69047;SDS011;56119;50.118;8.642;2023-03-14T00:11:18;17.27;;;8.38;;
69047;SDS011;56119;50.118;8.642;2023-03-14T00:13:48;15.57;;;7.90;;
69047;SDS011;56119;50.118;8.642;2023-03-14T00:16:14;15.52;;;7.85;;
69047;SDS011;56119;50.118;8.642;2023-03-14T00:18:40;12.30;;;6.90;;
69047;SDS011;56119;50.118;8.642;2023-03-14T00:21:06;11.82;;;6.47;;
69047;SDS011;56119;50.118;8.642;2023-03-14T00:23:33;13.45;;;6.47;;
69047;SDS011;56119;50.118;8.642;2023-03-14T00:26:00;11.55;;;5.80;;
69047;SDS011;56119;50.118;8.642;2023-03-14T00:28:26;10.98;;;5.38;;
69047;SDS011;56119;50.118;8.642;2023-03-14T00:30:52;11.85;;;5.75;;
69047;SDS011;56119;50.118;8.642;2023-03-14T00:33:18;13.13;;;6.18;;
69047;SDS011;56119;50.118;8.642;2023-03-14T00:35:52;9.95;;;5.18;;
69047;SDS011;56119;50.118;8.642;2023-03-14T00:38:18;8.45;;;4.22;;
69047;SDS011;56119;50.118;8.642;2023-03-14T00:40:43;8.65;;;4.13;;
69047;SDS011;56119;50.118;8.642;2023-03-14T00:43:09;12.45;;;4.35;;
69047;SDS011;56119;50.118;8.642;2023-03-14T00:45:35;11.82;;;4.60;;
69047;SDS011;56119;50.118;8.642;2023-03-14T00:48:01;8.90;;;3.88;;
69047;SDS011;56119;50.118;8.642;2023-03-14T00:50:27;8.90;;;3.63;;
69047;SDS011;56119;50.118;8.642;2023-03-14T00:52:53;7.20;;;3.55;;
69047;SDS011;56119;50.118;8.642;2023-03-14T00:55:19;8.70;;;3.50;;
69047;SDS011;56119;50.118;8.642;2023-03-14T00:57:45;10.20;;;3.67;;
69047;SDS011;56119;50.118;8.642;2023-03-14T01:00:12;20.55;;;10.90;;
69047;SDS011;56119;50.118;8.642;2023-03-14T01:02:38;19.45;;;9.43;;
69047;SDS011;56119;50.118;8.642;2023-03-14T01:05:04;12.43;;;6.38;;
69047;SDS011;56119;50.118;8.642;2023-03-14T01:07:30;13.55;;;7.22;;
69047;SDS011;56119;50.118;8.642;2023-03-14T01:09:56;10.32;;;4.65;;
69047;SDS011;56119;50.118;8.642;2023-03-14T01:12:22;11.52;;;4.93;;
69047;SDS011;56119;50.118;8.642;2023-03-14T01:14:48;13.50;;;4.50;;
69047;SDS011;56119;50.118;8.642;2023-03-14T01:17:14;8.98;;;3.78;;
69047;SDS011;56119;50.118;8.642;2023-03-14T01:19:40;10.40;;;4.18;;
69047;SDS011;56119;50.118;8.642;2023-03-14T01:22:06;10.05;;;3.67;;
69047;SDS011;56119;50.118;8.642;2023-03-14T01:24:31;9.40;;;3.33;;
69047;SDS011;56119;50.118;8.642;2023-03-14T01:26:57;16.55;;;7.93;;
69047;SDS011;56119;50.118;8.642;2023-03-14T01:29:23;13.00;;;6.05;;
69047;SDS011;56119;50.118;8.642;2023-03-14T01:31:49;7.15;;;4.13;;
69047;SDS011;56119;50.118;8.642;2023-03-14T01:34:15;10.93;;;3.50;;
69047;SDS011;56119;50.118;8.642;2023-03-14T01:36:41;11.05;;;3.90;;
69047;SDS011;56119;50.118;8.642;2023-03-14T01:39:07;11.18;;;3.45;;
69047;SDS011;56119;50.118;8.642;2023-03-14T01:41:34;6.82;;;2.97;;
69047;SDS011;56119;50.118;8.642;2023-03-14T01:44:00;9.25;;;2.90;;
69047;SDS011;56119;50.118;8.642;2023-03-14T01:48:57;15.23;;;3.42;;
69047;SDS011;56119;50.118;8.642;2023-03-14T01:51:25;15.63;;;3.35;;
69047;SDS011;56119;50.118;8.642;2023-03-14T01:53:53;6.65;;;2.58;;
69047;SDS011;56119;50.118;8.642;2023-03-14T01:56:22;7.30;;;2.63;;
69047;SDS011;56119;50.118;8.642;2023-03-14T01:58:49;7.72;;;3.15;;
69047;SDS011;56119;50.118;8.642;2023-03-14T02:01:16;9.35;;;2.67;;
69047;SDS011;56119;50.118;8.642;2023-03-14T02:03:46;9.65;;;3.00;;
69047;SDS011;56119;50.118;8.642;2023-03-14T02:06:13;10.20;;;3.22;;
69047;SDS011;56119;50.118;8.642;2023-03-14T02:08:40;10.05;;;2.97;;
69047;SDS011;56119;50.118;8.642;2023-03-14T02:11:06;11.13;;;3.28;;
69047;SDS011;56119;50.118;8.642;2023-03-14T02:13:33;10.43;;;3.00;;
69047;SDS011;56119;50.118;8.642;2023-03-14T02:15:59;9.65;;;2.60;;
69047;SDS011;56119;50.118;8.642;2023-03-14T02:18:25;10.52;;;2.70;;
69047;SDS011;56119;50.118;8.642;2023-03-14T02:20:53;11.65;;;3.10;;
69047;SDS011;56119;50.118;8.642;2023-03-14T02:24:04;8.88;;;2.90;;
69047;SDS011;56119;50.118;8.642;2023-03-14T02:26:11;8.30;;;3.25;;
69047;SDS011;56119;50.118;8.642;2023-03-14T02:28:40;9.20;;;2.88;;
69047;SDS011;56119;50.118;8.642;2023-03-14T02:31:06;7.07;;;2.70;;
69047;SDS011;56119;50.118;8.642;2023-03-14T02:33:33;9.02;;;2.63;;
69047;SDS011;56119;50.118;8.642;2023-03-14T02:36:07;7.95;;;2.60;;
69047;SDS011;56119;50.118;8.642;2023-03-14T02:38:50;7.72;;;2.60;;
69047;SDS011;56119;50.118;8.642;2023-03-14T02:41:17;10.10;;;2.88;;
69047;SDS011;56119;50.118;8.642;2023-03-14T02:43:43;9.05;;;2.60;;
69047;SDS011;56119;50.118;8.642;2023-03-14T02:46:10;6.32;;;2.65;;
69047;SDS011;56119;50.118;8.642;2023-03-14T02:48:45;9.25;;;3.13;;
69047;SDS011;56119;50.118;8.642;2023-03-14T02:51:14;9.45;;;2.38;;
69047;SDS011;56119;50.118;8.642;2023-03-14T02:53:40;8.13;;;2.55;;
69047;SDS011;56119;50.118;8.642;2023-03-14T02:56:08;8.95;;;2.83;;
69047;SDS011;56119;50.118;8.642;2023-03-14T02:58:34;7.32;;;2.35;;
69047;SDS011;56119;50.118;8.642;2023-03-14T03:01:00;7.97;;;2.38;;
69047;SDS011;56119;50.118;8.642;2023-03-14T03:03:26;7.80;;;2.38;;
69047;SDS011;56119;50.118;8.642;2023-03-14T03:05:53;6.97;;;1.95;;
69047;SDS011;56119;50.118;8.642;2023-03-14T03:08:20;7.00;;;2.45;;
69047;SDS011;56119;50.118;8.642;2023-03-14T03:10:47;5.53;;;2.20;;
69047;SDS011;56119;50.118;8.642;2023-03-14T03:13:13;7.65;;;2.15;;
69047;SDS011;56119;50.118;8.642;2023-03-14T03:15:40;4.25;;;1.90;;
69047;SDS011;56119;50.118;8.642;2023-03-14T03:18:06;7.10;;;1.95;;
69047;SDS011;56119;50.118;8.642;2023-03-14T03:20:32;6.78;;;2.05;;
69047;SDS011;56119;50.118;8.642;2023-03-14T03:22:58;5.43;;;1.85;;
69047;SDS011;56119;50.118;8.642;2023-03-14T03:25:25;6.65;;;1.98;;
69047;SDS011;56119;50.118;8.642;2023-03-14T03:27:51;7.82;;;2.50;;
69047;SDS011;56119;50.118;8.642;2023-03-14T03:30:17;6.93;;;2.28;;
69047;SDS011;56119;50.118;8.642;2023-03-14T03:32:43;10.60;;;2.15;;
69047;SDS011;56119;50.118;8.642;2023-03-14T03:35:09;7.43;;;1.90;;
69047;SDS011;56119;50.118;8.642;2023-03-14T03:37:35;8.15;;;2.25;;
69047;SDS011;56119;50.118;8.642;2023-03-14T03:40:01;10.30;;;1.80;;
69047;SDS011;56119;50.118;8.642;2023-03-14T03:42:30;6.10;;;2.00;;
69047;SDS011;56119;50.118;8.642;2023-03-14T03:44:57;9.02;;;2.10;;
69047;SDS011;56119;50.118;8.642;2023-03-14T03:47:23;8.18;;;1.90;;
69047;SDS011;56119;50.118;8.642;2023-03-14T03:49:49;9.02;;;2.13;;
69047;SDS011;56119;50.118;8.642;2023-03-14T03:52:15;7.28;;;2.00;;
69047;SDS011;56119;50.118;8.642;2023-03-14T03:54:41;7.80;;;2.05;;
69047;SDS011;56119;50.118;8.642;2023-03-14T03:57:07;5.82;;;2.10;;
69047;SDS011;56119;50.118;8.642;2023-03-14T03:59:33;9.13;;;1.75;;
69047;SDS011;56119;50.118;8.642;2023-03-14T04:01:59;7.22;;;1.75;;
69047;SDS011;56119;50.118;8.642;2023-03-14T04:04:25;8.70;;;2.25;;
69047;SDS011;56119;50.118;8.642;2023-03-14T04:06:51;5.50;;;1.60;;
69047;SDS011;56119;50.118;8.642;2023-03-14T04:09:17;8.38;;;1.80;;
69047;SDS011;56119;50.118;8.642;2023-03-14T04:11:43;5.25;;;1.65;;
69047;SDS011;56119;50.118;8.642;2023-03-14T04:14:09;9.25;;;2.42;;
69047;SDS011;56119;50.118;8.642;2023-03-14T04:16:35;5.78;;;2.17;;
69047;SDS011;56119;50.118;8.642;2023-03-14T04:19:01;12.88;;;3.25;;
69047;SDS011;56119;50.118;8.642;2023-03-14T04:21:28;5.30;;;1.58;;
69047;SDS011;56119;50.118;8.642;2023-03-14T04:23:54;7.82;;;2.13;;
69047;SDS011;56119;50.118;8.642;2023-03-14T04:26:20;6.63;;;1.83;;
69047;SDS011;56119;50.118;8.642;2023-03-14T04:28:46;6.47;;;1.70;;
69047;SDS011;56119;50.118;8.642;2023-03-14T04:31:16;7.70;;;1.80;;
69047;SDS011;56119;50.118;8.642;2023-03-14T04:33:43;7.50;;;1.77;;
69047;SDS011;56119;50.118;8.642;2023-03-14T04:36:09;9.60;;;1.88;;
69047;SDS011;56119;50.118;8.642;2023-03-14T04:38:35;3.38;;;1.50;;
69047;SDS011;56119;50.118;8.642;2023-03-14T04:41:01;10.23;;;1.65;;
69047;SDS011;56119;50.118;8.642;2023-03-14T04:43:27;6.72;;;2.13;;
69047;SDS011;56119;50.118;8.642;2023-03-14T04:45:53;4.30;;;1.60;;
69047;SDS011;56119;50.118;8.642;2023-03-14T04:48:19;7.22;;;1.90;;
69047;SDS011;56119;50.118;8.642;2023-03-14T04:50:46;9.63;;;1.58;;
69047;SDS011;56119;50.118;8.642;2023-03-14T04:53:12;7.20;;;1.40;;
69047;SDS011;56119;50.118;8.642;2023-03-14T04:55:38;8.13;;;2.00;;
69047;SDS011;56119;50.118;8.642;2023-03-14T04:58:04;5.82;;;1.40;;
69047;SDS011;56119;50.118;8.642;2023-03-14T05:00:30;6.15;;;1.30;;
69047;SDS011;56119;50.118;8.642;2023-03-14T05:02:56;6.25;;;1.48;;
69047;SDS011;56119;50.118;8.642;2023-03-14T05:05:23;6.07;;;1.75;;
69047;SDS011;56119;50.118;8.642;2023-03-14T05:07:49;5.00;;;1.27;;
69047;SDS011;56119;50.118;8.642;2023-03-14T05:10:15;4.53;;;1.40;;
69047;SDS011;56119;50.118;8.642;2023-03-14T05:12:41;5.95;;;1.20;;
69047;SDS011;56119;50.118;8.642;2023-03-14T05:15:07;6.43;;;1.42;;
69047;SDS011;56119;50.118;8.642;2023-03-14T05:17:33;4.85;;;1.80;;
69047;SDS011;56119;50.118;8.642;2023-03-14T05:19:59;5.90;;;1.30;;
69047;SDS011;56119;50.118;8.642;2023-03-14T05:22:25;4.68;;;1.33;;
69047;SDS011;56119;50.118;8.642;2023-03-14T05:24:51;4.35;;;1.17;;
69047;SDS011;56119;50.118;8.642;2023-03-14T05:27:21;4.43;;;1.17;;
69047;SDS011;56119;50.118;8.642;2023-03-14T05:29:47;6.40;;;1.35;;
69047;SDS011;56119;50.118;8.642;2023-03-14T05:32:13;6.72;;;1.05;;
69047;SDS011;56119;50.118;8.642;2023-03-14T05:34:39;8.93;;;1.65;;
69047;SDS011;56119;50.118;8.642;2023-03-14T05:37:05;5.57;;;1.55;;
69047;SDS011;56119;50.118;8.642;2023-03-14T05:39:32;8.82;;;1.88;;
69047;SDS011;56119;50.118;8.642;2023-03-14T05:41:58;8.00;;;2.13;;
69047;SDS011;56119;50.118;8.642;2023-03-14T05:44:23;5.53;;;1.30;;
69047;SDS011;56119;50.118;8.642;2023-03-14T05:46:49;2.25;;;0.95;;
69047;SDS011;56119;50.118;8.642;2023-03-14T05:49:15;4.82;;;1.40;;
69047;SDS011;56119;50.118;8.642;2023-03-14T05:51:42;6.07;;;1.10;;
69047;SDS011;56119;50.118;8.642;2023-03-14T05:54:08;3.63;;;1.23;;
69047;SDS011;56119;50.118;8.642;2023-03-14T05:56:34;5.60;;;1.20;;
69047;SDS011;56119;50.118;8.642;2023-03-14T05:59:00;4.78;;;1.25;;
69047;SDS011;56119;50.118;8.642;2023-03-14T06:01:28;8.80;;;1.02;;
69047;SDS011;56119;50.118;8.642;2023-03-14T06:03:54;3.95;;;0.90;;
69047;SDS011;56119;50.118;8.642;2023-03-14T06:06:20;3.80;;;1.05;;
69047;SDS011;56119;50.118;8.642;2023-03-14T06:08:46;6.70;;;1.05;;
69047;SDS011;56119;50.118;8.642;2023-03-14T06:11:12;5.10;;;1.38;;
69047;SDS011;56119;50.118;8.642;2023-03-14T06:13:38;2.75;;;0.90;;
69047;SDS011;56119;50.118;8.642;2023-03-14T06:16:04;3.65;;;1.00;;
69047;SDS011;56119;50.118;8.642;2023-03-14T06:18:30;6.95;;;1.23;;
69047;SDS011;56119;50.118;8.642;2023-03-14T06:20:57;5.72;;;1.08;;
69047;SDS011;56119;50.118;8.642;2023-03-14T06:23:23;5.65;;;1.20;;
69047;SDS011;56119;50.118;8.642;2023-03-14T06:25:50;4.88;;;1.10;;
69047;SDS011;56119;50.118;8.642;2023-03-14T06:28:16;4.18;;;0.95;;
69047;SDS011;56119;50.118;8.642;2023-03-14T06:30:42;5.15;;;1.25;;
69047;SDS011;56119;50.118;8.642;2023-03-14T06:33:08;4.53;;;0.93;;
69047;SDS011;56119;50.118;8.642;2023-03-14T06:35:34;3.15;;;1.08;;
69047;SDS011;56119;50.118;8.642;2023-03-14T06:38:00;4.05;;;1.10;;
69047;SDS011;56119;50.118;8.642;2023-03-14T06:40:26;4.30;;;0.93;;
69047;SDS011;56119;50.118;8.642;2023-03-14T06:42:52;7.32;;;0.90;;
69047;SDS011;56119;50.118;8.642;2023-03-14T06:45:18;3.60;;;0.93;;
69047;SDS011;56119;50.118;8.642;2023-03-14T06:47:44;4.43;;;1.02;;
69047;SDS011;56119;50.118;8.642;2023-03-14T06:50:10;4.68;;;0.88;;
69047;SDS011;56119;50.118;8.642;2023-03-14T06:52:36;7.53;;;1.80;;
69047;SDS011;56119;50.118;8.642;2023-03-14T06:55:06;6.32;;;0.95;;
69047;SDS011;56119;50.118;8.642;2023-03-14T06:57:32;4.28;;;1.00;;
69047;SDS011;56119;50.118;8.642;2023-03-14T06:59:58;5.63;;;1.00;;
69047;SDS011;56119;50.118;8.642;2023-03-14T07:02:24;6.65;;;1.00;;
69047;SDS011;56119;50.118;8.642;2023-03-14T07:04:50;2.20;;;0.88;;
69047;SDS011;56119;50.118;8.642;2023-03-14T07:07:16;4.53;;;1.10;;
69047;SDS011;56119;50.118;8.642;2023-03-14T07:09:42;3.92;;;0.93;;
69047;SDS011;56119;50.118;8.642;2023-03-14T07:12:08;5.93;;;1.20;;
69047;SDS011;56119;50.118;8.642;2023-03-14T07:14:34;5.00;;;1.08;;
69047;SDS011;56119;50.118;8.642;2023-03-14T07:17:00;2.70;;;0.80;;
69047;SDS011;56119;50.118;8.642;2023-03-14T07:19:26;3.80;;;0.85;;
69047;SDS011;56119;50.118;8.642;2023-03-14T07:21:52;3.05;;;1.10;;
69047;SDS011;56119;50.118;8.642;2023-03-14T07:24:18;2.25;;;0.77;;
69047;SDS011;56119;50.118;8.642;2023-03-14T07:26:44;4.38;;;0.90;;
69047;SDS011;56119;50.118;8.642;2023-03-14T07:29:10;4.70;;;0.60;;
69047;SDS011;56119;50.118;8.642;2023-03-14T07:31:36;4.18;;;0.90;;
69047;SDS011;56119;50.118;8.642;2023-03-14T07:34:02;4.30;;;0.90;;
69047;SDS011;56119;50.118;8.642;2023-03-14T07:36:28;3.50;;;0.60;;
69047;SDS011;56119;50.118;8.642;2023-03-14T07:38:53;5.03;;;0.90;;
69047;SDS011;56119;50.118;8.642;2023-03-14T07:41:19;4.00;;;0.93;;
69047;SDS011;56119;50.118;8.642;2023-03-14T07:43:46;4.68;;;0.65;;
69047;SDS011;56119;50.118;8.642;2023-03-14T07:46:12;3.58;;;0.70;;
69047;SDS011;56119;50.118;8.642;2023-03-14T07:48:38;5.60;;;1.00;;
69047;SDS011;56119;50.118;8.642;2023-03-14T07:51:04;4.25;;;0.70;;
69047;SDS011;56119;50.118;8.642;2023-03-14T07:53:30;3.00;;;0.88;;
69047;SDS011;56119;50.118;8.642;2023-03-14T07:55:56;3.33;;;0.93;;
69047;SDS011;56119;50.118;8.642;2023-03-14T07:58:22;3.47;;;1.00;;
69047;SDS011;56119;50.118;8.642;2023-03-14T08:00:48;3.55;;;1.25;;
69047;SDS011;56119;50.118;8.642;2023-03-14T08:03:14;5.63;;;1.27;;
69047;SDS011;56119;50.118;8.642;2023-03-14T08:05:41;2.80;;;0.88;;
69047;SDS011;56119;50.118;8.642;2023-03-14T08:08:07;5.95;;;1.25;;
69047;SDS011;56119;50.118;8.642;2023-03-14T08:10:33;5.68;;;0.90;;
69047;SDS011;56119;50.118;8.642;2023-03-14T08:12:59;3.70;;;0.70;;
69047;SDS011;56119;50.118;8.642;2023-03-14T08:15:26;4.60;;;0.88;;
69047;SDS011;56119;50.118;8.642;2023-03-14T08:17:52;2.50;;;0.82;;
69047;SDS011;56119;50.118;8.642;2023-03-14T08:20:19;2.97;;;0.60;;
69047;SDS011;56119;50.118;8.642;2023-03-14T08:22:45;5.07;;;0.95;;
69047;SDS011;56119;50.118;8.642;2023-03-14T08:25:11;4.35;;;0.85;;
69047;SDS011;56119;50.118;8.642;2023-03-14T08:27:37;3.05;;;0.80;;
69047;SDS011;56119;50.118;8.642;2023-03-14T08:30:07;3.83;;;0.95;;
69047;SDS011;56119;50.118;8.642;2023-03-14T08:32:33;2.22;;;0.73;;
69047;SDS011;56119;50.118;8.642;2023-03-14T08:34:59;3.28;;;1.38;;
69047;SDS011;56119;50.118;8.642;2023-03-14T08:37:25;2.30;;;0.60;;
69047;SDS011;56119;50.118;8.642;2023-03-14T08:39:52;3.45;;;1.02;;
69047;SDS011;56119;50.118;8.642;2023-03-14T08:42:18;3.47;;;1.30;;
69047;SDS011;56119;50.118;8.642;2023-03-14T08:44:44;1.25;;;0.82;;
69047;SDS011;56119;50.118;8.642;2023-03-14T08:47:10;2.90;;;1.08;;
69047;SDS011;56119;50.118;8.642;2023-03-14T08:49:36;0.80;;;0.60;;
69047;SDS011;56119;50.118;8.642;2023-03-14T08:52:05;2.63;;;0.90;;
69047;SDS011;56119;50.118;8.642;2023-03-14T08:54:31;1.65;;;0.90;;
69047;SDS011;56119;50.118;8.642;2023-03-14T08:56:57;3.95;;;0.93;;
69047;SDS011;56119;50.118;8.642;2023-03-14T08:59:23;2.53;;;0.90;;
69047;SDS011;56119;50.118;8.642;2023-03-14T09:01:50;2.85;;;1.23;;
69047;SDS011;56119;50.118;8.642;2023-03-14T09:04:16;2.88;;;1.40;;
69047;SDS011;56119;50.118;8.642;2023-03-14T09:06:42;1.85;;;1.00;;
69047;SDS011;56119;50.118;8.642;2023-03-14T09:09:08;1.55;;;0.75;;
69047;SDS011;56119;50.118;8.642;2023-03-14T09:11:34;4.50;;;1.08;;
69047;SDS011;56119;50.118;8.642;2023-03-14T09:14:00;2.83;;;0.98;;
69047;SDS011;56119;50.118;8.642;2023-03-14T09:16:26;3.58;;;1.17;;
69047;SDS011;56119;50.118;8.642;2023-03-14T09:18:52;2.53;;;0.80;;
69047;SDS011;56119;50.118;8.642;2023-03-14T09:21:22;1.48;;;0.75;;
69047;SDS011;56119;50.118;8.642;2023-03-14T09:23:48;2.75;;;0.63;;
69047;SDS011;56119;50.118;8.642;2023-03-14T09:26:14;2.03;;;0.73;;
69047;SDS011;56119;50.118;8.642;2023-03-14T09:28:40;2.03;;;1.00;;
69047;SDS011;56119;50.118;8.642;2023-03-14T09:31:07;4.10;;;0.70;;
69047;SDS011;56119;50.118;8.642;2023-03-14T09:33:33;2.20;;;0.70;;
69047;SDS011;56119;50.118;8.642;2023-03-14T09:36:00;2.33;;;0.90;;
69047;SDS011;56119;50.118;8.642;2023-03-14T09:38:26;1.77;;;0.95;;
69047;SDS011;56119;50.118;8.642;2023-03-14T09:40:53;1.02;;;0.45;;
69047;SDS011;56119;50.118;8.642;2023-03-14T09:43:19;1.52;;;0.63;;
69047;SDS011;56119;50.118;8.642;2023-03-14T09:45:47;2.58;;;0.80;;
69047;SDS011;56119;50.118;8.642;2023-03-14T09:48:15;1.48;;;0.88;;
69047;SDS011;56119;50.118;8.642;2023-03-14T09:50:43;1.38;;;0.77;;
69047;SDS011;56119;50.118;8.642;2023-03-14T09:53:12;1.33;;;0.77;;
69047;SDS011;56119;50.118;8.642;2023-03-14T09:55:38;1.08;;;0.80;;
69047;SDS011;56119;50.118;8.642;2023-03-14T09:58:08;1.42;;;0.98;;
69047;SDS011;56119;50.118;8.642;2023-03-14T10:00:35;2.58;;;0.85;;
69047;SDS011;56119;50.118;8.642;2023-03-14T10:03:13;2.20;;;0.90;;
69047;SDS011;56119;50.118;8.642;2023-03-14T10:05:42;1.33;;;0.80;;
69047;SDS011;56119;50.118;8.642;2023-03-14T10:08:13;1.55;;;1.33;;
69047;SDS011;56119;50.118;8.642;2023-03-14T10:10:39;1.02;;;0.82;;
69047;SDS011;56119;50.118;8.642;2023-03-14T10:13:18;1.25;;;0.80;;
69047;SDS011;56119;50.118;8.642;2023-03-14T10:18:22;3.10;;;0.90;;
69047;SDS011;56119;50.118;8.642;2023-03-14T10:20:49;1.63;;;0.70;;
69047;SDS011;56119;50.118;8.642;2023-03-14T10:28:27;3.92;;;0.93;;
69047;SDS011;56119;50.118;8.642;2023-03-14T10:30:53;1.80;;;0.70;;
69047;SDS011;56119;50.118;8.642;2023-03-14T10:33:24;1.27;;;0.70;;
69047;SDS011;56119;50.118;8.642;2023-03-14T10:36:00;1.15;;;0.75;;
69047;SDS011;56119;50.118;8.642;2023-03-14T10:38:30;1.52;;;0.60;;
69047;SDS011;56119;50.118;8.642;2023-03-14T10:40:57;2.30;;;0.63;;
69047;SDS011;56119;50.118;8.642;2023-03-14T10:43:32;0.68;;;0.57;;
69047;SDS011;56119;50.118;8.642;2023-03-14T10:46:20;1.38;;;0.75;;
69047;SDS011;56119;50.118;8.642;2023-03-14T10:48:45;1.42;;;1.00;;
69047;SDS011;56119;50.118;8.642;2023-03-14T10:53:41;1.98;;;0.80;;
69047;SDS011;56119;50.118;8.642;2023-03-14T10:56:12;1.92;;;0.82;;
69047;SDS011;56119;50.118;8.642;2023-03-14T10:58:40;1.13;;;0.90;;
69047;SDS011;56119;50.118;8.642;2023-03-14T11:01:11;1.02;;;0.65;;
69047;SDS011;56119;50.118;8.642;2023-03-14T11:03:40;2.28;;;1.08;;
69047;SDS011;56119;50.118;8.642;2023-03-14T11:06:14;1.60;;;1.30;;
69047;SDS011;56119;50.118;8.642;2023-03-14T11:29:15;3.63;;;1.73;;
69047;SDS011;56119;50.118;8.642;2023-03-14T11:31:43;2.42;;;1.98;;
69047;SDS011;56119;50.118;8.642;2023-03-14T11:34:14;4.28;;;2.30;;
69047;SDS011;56119;50.118;8.642;2023-03-14T11:36:44;2.03;;;1.77;;
69047;SDS011;56119;50.118;8.642;2023-03-14T11:39:13;2.60;;;1.50;;
69047;SDS011;56119;50.118;8.642;2023-03-14T11:41:40;3.78;;;1.80;;
69047;SDS011;56119;50.118;8.642;2023-03-14T11:44:14;3.03;;;1.90;;
69047;SDS011;56119;50.118;8.642;2023-03-14T11:46:46;3.25;;;2.05;;
69047;SDS011;56119;50.118;8.642;2023-03-14T11:49:16;1.45;;;1.35;;
69047;SDS011;56119;50.118;8.642;2023-03-14T11:51:49;2.45;;;1.60;;
69047;SDS011;56119;50.118;8.642;2023-03-14T11:54:25;1.13;;;1.00;;
69047;SDS011;56119;50.118;8.642;2023-03-14T11:56:55;1.60;;;1.50;;
69047;SDS011;56119;50.118;8.642;2023-03-14T11:59:24;2.38;;;1.20;;
69047;SDS011;56119;50.118;8.642;2023-03-14T12:01:53;2.50;;;1.10;;
69047;SDS011;56119;50.118;8.642;2023-03-14T12:04:22;1.63;;;1.10;;
69047;SDS011;56119;50.118;8.642;2023-03-14T12:06:55;1.30;;;1.20;;
69047;SDS011;56119;50.118;8.642;2023-03-14T12:09:22;3.40;;;1.10;;
69047;SDS011;56119;50.118;8.642;2023-03-14T12:11:50;4.53;;;0.50;;
69047;SDS011;56119;50.118;8.642;2023-03-14T12:14:28;1.15;;;0.50;;
69047;SDS011;56119;50.118;8.642;2023-03-14T12:17:38;0.95;;;0.60;;
69047;SDS011;56119;50.118;8.642;2023-03-14T12:19:44;0.63;;;0.30;;
69047;SDS011;56119;50.118;8.642;2023-03-14T12:24:45;0.90;;;0.17;;
69047;SDS011;56119;50.118;8.642;2023-03-14T12:27:13;1.55;;;0.40;;
69047;SDS011;56119;50.118;8.642;2023-03-14T12:29:59;0.60;;;0.40;;
69047;SDS011;56119;50.118;8.642;2023-03-14T12:32:25;1.08;;;0.57;;
69047;SDS011;56119;50.118;8.642;2023-03-14T12:34:51;0.77;;;0.50;;
69047;SDS011;56119;50.118;8.642;2023-03-14T12:44:45;1.45;;;0.50;;
69047;SDS011;56119;50.118;8.642;2023-03-14T12:49:45;0.85;;;0.65;;
69047;SDS011;56119;50.118;8.642;2023-03-14T12:52:13;1.05;;;0.70;;
69047;SDS011;56119;50.118;8.642;2023-03-14T12:54:45;1.40;;;0.80;;
69047;SDS011;56119;50.118;8.642;2023-03-14T12:57:19;1.05;;;0.95;;
69047;SDS011;56119;50.118;8.642;2023-03-14T12:59:59;2.92;;;0.70;;
69047;SDS011;56119;50.118;8.642;2023-03-14T13:02:29;2.08;;;1.02;;
69047;SDS011;56119;50.118;8.642;2023-03-14T13:05:05;1.15;;;0.82;;
69047;SDS011;56119;50.118;8.642;2023-03-14T13:12:40;2.20;;;1.13;;
69047;SDS011;56119;50.118;8.642;2023-03-14T13:15:41;2.03;;;1.45;;
69047;SDS011;56119;50.118;8.642;2023-03-14T13:18:16;1.58;;;1.10;;
69047;SDS011;56119;50.118;8.642;2023-03-14T13:20:48;2.63;;;1.35;;
69047;SDS011;56119;50.118;8.642;2023-03-14T13:23:19;0.82;;;0.70;;
69047;SDS011;56119;50.118;8.642;2023-03-14T13:25:45;1.05;;;0.90;;
69047;SDS011;56119;50.118;8.642;2023-03-14T13:28:13;0.80;;;0.70;;
69047;SDS011;56119;50.118;8.642;2023-03-14T13:30:41;0.80;;;0.57;;
69047;SDS011;56119;50.118;8.642;2023-03-14T13:33:11;2.60;;;0.93;;
69047;SDS011;56119;50.118;8.642;2023-03-14T13:35:40;2.53;;;0.80;;
69047;SDS011;56119;50.118;8.642;2023-03-14T13:38:13;0.47;;;0.40;;
69047;SDS011;56119;50.118;8.642;2023-03-14T13:40:41;0.50;;;0.50;;
69047;SDS011;56119;50.118;8.642;2023-03-14T13:43:13;1.15;;;0.50;;
69047;SDS011;56119;50.118;8.642;2023-03-14T13:45:44;1.75;;;0.50;;
69047;SDS011;56119;50.118;8.642;2023-03-14T13:48:11;0.80;;;0.60;;
69047;SDS011;56119;50.118;8.642;2023-03-14T13:50:39;1.85;;;0.47;;
69047;SDS011;56119;50.118;8.642;2023-03-14T13:53:10;0.75;;;0.43;;
69047;SDS011;56119;50.118;8.642;2023-03-14T13:55:36;0.77;;;0.30;;
69047;SDS011;56119;50.118;8.642;2023-03-14T13:58:02;0.82;;;0.30;;
69047;SDS011;56119;50.118;8.642;2023-03-14T14:00:28;0.68;;;0.40;;
69047;SDS011;56119;50.118;8.642;2023-03-14T14:02:55;0.22;;;0.20;;
69047;SDS011;56119;50.118;8.642;2023-03-14T14:05:22;0.38;;;0.28;;
69047;SDS011;56119;50.118;8.642;2023-03-14T14:07:48;0.25;;;0.20;;
69047;SDS011;56119;50.118;8.642;2023-03-14T14:10:14;0.40;;;0.20;;
69047;SDS011;56119;50.118;8.642;2023-03-14T14:12:42;0.20;;;0.20;;
69047;SDS011;56119;50.118;8.642;2023-03-14T14:15:19;0.30;;;0.30;;
69047;SDS011;56119;50.118;8.642;2023-03-14T14:17:53;1.73;;;0.50;;
69047;SDS011;56119;50.118;8.642;2023-03-14T14:20:24;0.30;;;0.30;;
69047;SDS011;56119;50.118;8.642;2023-03-14T14:22:56;0.65;;;0.30;;
69047;SDS011;56119;50.118;8.642;2023-03-14T14:25:22;0.43;;;0.30;;
69047;SDS011;56119;50.118;8.642;2023-03-14T14:27:49;0.47;;;0.30;;
69047;SDS011;56119;50.118;8.642;2023-03-14T14:32:48;0.65;;;0.40;;
69047;SDS011;56119;50.118;8.642;2023-03-14T14:35:24;1.30;;;0.20;;
69047;SDS011;56119;50.118;8.642;2023-03-14T14:37:50;1.45;;;0.57;;
69047;SDS011;56119;50.118;8.642;2023-03-14T14:40:18;0.75;;;0.30;;
69047;SDS011;56119;50.118;8.642;2023-03-14T14:42:45;0.50;;;0.40;;
69047;SDS011;56119;50.118;8.642;2023-03-14T14:45:33;0.47;;;0.30;;
69047;SDS011;56119;50.118;8.642;2023-03-14T14:50:28;0.30;;;0.28;;
69047;SDS011;56119;50.118;8.642;2023-03-14T14:52:59;0.47;;;0.30;;
69047;SDS011;56119;50.118;8.642;2023-03-14T14:55:31;0.30;;;0.30;;
69047;SDS011;56119;50.118;8.642;2023-03-14T14:57:57;0.30;;;0.30;;
69047;SDS011;56119;50.118;8.642;2023-03-14T15:00:24;0.93;;;0.50;;
69047;SDS011;56119;50.118;8.642;2023-03-14T15:02:51;0.68;;;0.60;;
69047;SDS011;56119;50.118;8.642;2023-03-14T15:05:19;1.30;;;0.70;;
69047;SDS011;56119;50.118;8.642;2023-03-14T15:07:48;1.52;;;1.00;;
69047;SDS011;56119;50.118;8.642;2023-03-14T15:10:15;1.33;;;0.80;;
69047;SDS011;56119;50.118;8.642;2023-03-14T15:12:41;1.25;;;0.85;;
69047;SDS011;56119;50.118;8.642;2023-03-14T15:15:08;1.15;;;0.80;;
69047;SDS011;56119;50.118;8.642;2023-03-14T15:17:34;1.90;;;1.00;;
69047;SDS011;56119;50.118;8.642;2023-03-14T15:20:01;1.20;;;0.90;;
69047;SDS011;56119;50.118;8.642;2023-03-14T15:22:29;2.90;;;1.42;;
69047;SDS011;56119;50.118;8.642;2023-03-14T15:24:55;3.25;;;1.00;;
69047;SDS011;56119;50.118;8.642;2023-03-14T15:27:21;1.75;;;1.08;;
69047;SDS011;56119;50.118;8.642;2023-03-14T15:29:47;1.02;;;0.50;;
69047;SDS011;56119;50.118;8.642;2023-03-14T15:32:14;1.08;;;0.50;;
69047;SDS011;56119;50.118;8.642;2023-03-14T15:34:40;1.23;;;0.63;;
69047;SDS011;56119;50.118;8.642;2023-03-14T15:37:14;2.28;;;0.52;;
69047;SDS011;56119;50.118;8.642;2023-03-14T15:39:41;1.23;;;0.60;;
69047;SDS011;56119;50.118;8.642;2023-03-14T15:42:07;0.75;;;0.47;;
69047;SDS011;56119;50.118;8.642;2023-03-14T15:44:33;0.50;;;0.30;;